首页
METAR-TAF:

METAR-TAF

机场 :

第聶伯羅彼得羅夫斯克國際機場

第聂伯罗彼得罗夫斯克, 乌克兰

纬度: 48-21-26N, 经度: 035-06-02E, 海拔: 147米

当前天气观测

该预报发布于22分钟前的20:30 UTC
风速4节,风向东北
温度 5°C
湿度 70%
气压 1020 hPa
能见度10公里或以上
1500米以下无云,无积雨云

METAR: UKDD 232030Z 04002MPS CAVOK 05/M00 Q1020 R08/090070 NOSIG

时间: 23:52 (20:52 UTC)

预报

该预报发布于3小时和51分钟前的17:01 UTC
预报有效从23日的 18点(UTC)到 24日的 18点(UTC)
风速6节,风向东转东北
能见度10公里或以上
多云层高于3000英尺

TAF: UKDD 231701Z 2318/2418 07003MPS 9999 BKN030 TX16/2412Z TN03/2403Z

超过4000个机场的气象观测和天气预报(METAR&TAF报告)。

可查询的气象台以黄色和红色小点在地图上表示。

将鼠标移到小点上方,可查看气象台名称。

然后点击查看天气观测和预报。

如需切换地图:点击带黑十字的绿色按钮放大地图;点击带横线的绿色按钮缩小地图;或者点击绿色箭头查看邻近地区的地图。


METAR-TAF: